sensor_id;sensor_type;location;lat;lon;timestamp;temperature;humidity
67893;DHT22;54688;52.376;16.744;2023-03-24T00:01:04;7.2;80.1
67893;DHT22;54688;52.376;16.744;2023-03-24T00:04:07;7.1;80
67893;DHT22;54688;52.376;16.744;2023-03-24T00:10:10;7;80
67893;DHT22;54688;52.376;16.744;2023-03-24T00:13:14;6.9;80
67893;DHT22;54688;52.376;16.744;2023-03-24T00:19:17;6.8;80.2
67893;DHT22;54688;52.376;16.744;2023-03-24T00:22:19;6.8;80.4
67893;DHT22;54688;52.376;16.744;2023-03-24T00:25:22;6.7;80.7
67893;DHT22;54688;52.376;16.744;2023-03-24T00:28:25;6.7;80.8
67893;DHT22;54688;52.376;16.744;2023-03-24T00:31:27;6.8;81.1
67893;DHT22;54688;52.376;16.744;2023-03-24T00:34:29;6.8;81.3
67893;DHT22;54688;52.376;16.744;2023-03-24T00:37:31;6.9;81.6
67893;DHT22;54688;52.376;16.744;2023-03-24T00:40:34;6.9;81.5
67893;DHT22;54688;52.376;16.744;2023-03-24T00:43:36;6.9;81.5
67893;DHT22;54688;52.376;16.744;2023-03-24T00:46:39;7;81.3
67893;DHT22;54688;52.376;16.744;2023-03-24T00:49:41;7;81.2
67893;DHT22;54688;52.376;16.744;2023-03-24T00:52:43;7;81
67893;DHT22;54688;52.376;16.744;2023-03-24T00:55:46;7;80.9
67893;DHT22;54688;52.376;16.744;2023-03-24T00:58:48;7.1;80.8
67893;DHT22;54688;52.376;16.744;2023-03-24T01:01:50;7.1;80.8
67893;DHT22;54688;52.376;16.744;2023-03-24T01:04:52;7.1;81.1
67893;DHT22;54688;52.376;16.744;2023-03-24T01:07:55;7.1;81.1
67893;DHT22;54688;52.376;16.744;2023-03-24T01:10:58;7.2;80.9
67893;DHT22;54688;52.376;16.744;2023-03-24T01:14:01;7.2;80.3
67893;DHT22;54688;52.376;16.744;2023-03-24T01:17:03;7.2;80.9
67893;DHT22;54688;52.376;16.744;2023-03-24T01:20:06;7.2;80.8
67893;DHT22;54688;52.376;16.744;2023-03-24T01:23:09;7.2;80.8
67893;DHT22;54688;52.376;16.744;2023-03-24T01:26:11;7.3;80.8
67893;DHT22;54688;52.376;16.744;2023-03-24T01:29:13;7.3;80.8
67893;DHT22;54688;52.376;16.744;2023-03-24T01:32:15;7.3;80.8
67893;DHT22;54688;52.376;16.744;2023-03-24T01:35:17;7.4;81
67893;DHT22;54688;52.376;16.744;2023-03-24T01:38:19;7.4;81
67893;DHT22;54688;52.376;16.744;2023-03-24T01:41:22;7.4;81.2
67893;DHT22;54688;52.376;16.744;2023-03-24T01:44:26;7.5;81.3
67893;DHT22;54688;52.376;16.744;2023-03-24T01:47:30;7.5;81.3
67893;DHT22;54688;52.376;16.744;2023-03-24T01:50:33;7.5;81.5
67893;DHT22;54688;52.376;16.744;2023-03-24T01:53:37;7.5;81.6
67893;DHT22;54688;52.376;16.744;2023-03-24T01:56:43;7.5;81.5
67893;DHT22;54688;52.376;16.744;2023-03-24T01:59:50;7.6;81.5
67893;DHT22;54688;52.376;16.744;2023-03-24T02:02:56;7.5;81.4
67893;DHT22;54688;52.376;16.744;2023-03-24T02:06:02;7.5;81.3
67893;DHT22;54688;52.376;16.744;2023-03-24T02:09:06;7.4;81.2
67893;DHT22;54688;52.376;16.744;2023-03-24T02:12:09;7.4;81.1
67893;DHT22;54688;52.376;16.744;2023-03-24T02:15:12;7.4;81.3
67893;DHT22;54688;52.376;16.744;2023-03-24T02:18:18;7.3;81.3
67893;DHT22;54688;52.376;16.744;2023-03-24T02:21:36;7.3;81.3
67893;DHT22;54688;52.376;16.744;2023-03-24T02:25:01;7.2;81.4
67893;DHT22;54688;52.376;16.744;2023-03-24T02:28:25;7.2;81.4
67893;DHT22;54688;52.376;16.744;2023-03-24T02:31:42;7.1;81.4
67893;DHT22;54688;52.376;16.744;2023-03-24T02:35:03;7.1;81.8
67893;DHT22;54688;52.376;16.744;2023-03-24T02:38:28;7.1;81.8
67893;DHT22;54688;52.376;16.744;2023-03-24T02:41:45;7.1;82
67893;DHT22;54688;52.376;16.744;2023-03-24T02:44:55;7;82
67893;DHT22;54688;52.376;16.744;2023-03-24T02:48:20;7;82
67893;DHT22;54688;52.376;16.744;2023-03-24T02:51:29;7;82
67893;DHT22;54688;52.376;16.744;2023-03-24T02:54:37;6.9;82
67893;DHT22;54688;52.376;16.744;2023-03-24T02:57:43;7;82.2
67893;DHT22;54688;52.376;16.744;2023-03-24T03:00:53;7;82.8
67893;DHT22;54688;52.376;16.744;2023-03-24T03:03:59;7;83.1
67893;DHT22;54688;52.376;16.744;2023-03-24T03:07:06;7.1;83.3
67893;DHT22;54688;52.376;16.744;2023-03-24T03:10:12;7.1;83.2
67893;DHT22;54688;52.376;16.744;2023-03-24T03:13:19;7;83
67893;DHT22;54688;52.376;16.744;2023-03-24T03:16:28;7;83
67893;DHT22;54688;52.376;16.744;2023-03-24T03:19:35;7;83.2
67893;DHT22;54688;52.376;16.744;2023-03-24T03:22:42;7.1;83.3
67893;DHT22;54688;52.376;16.744;2023-03-24T03:25:50;7.1;83.4
67893;DHT22;54688;52.376;16.744;2023-03-24T03:28:57;7.1;83.5
67893;DHT22;54688;52.376;16.744;2023-03-24T03:32:03;7.1;83.3
67893;DHT22;54688;52.376;16.744;2023-03-24T03:35:11;7.1;83.3
67893;DHT22;54688;52.376;16.744;2023-03-24T03:38:19;7;83.4
67893;DHT22;54688;52.376;16.744;2023-03-24T03:41:26;7;83.7
67893;DHT22;54688;52.376;16.744;2023-03-24T03:44:29;7;83.7
67893;DHT22;54688;52.376;16.744;2023-03-24T03:47:31;7.1;83.7
67893;DHT22;54688;52.376;16.744;2023-03-24T03:50:34;7.1;83.7
67893;DHT22;54688;52.376;16.744;2023-03-24T03:53:38;7;83.8
67893;DHT22;54688;52.376;16.744;2023-03-24T03:56:44;7;83.8
67893;DHT22;54688;52.376;16.744;2023-03-24T03:59:47;7;83.6
67893;DHT22;54688;52.376;16.744;2023-03-24T04:02:53;7;83.9
67893;DHT22;54688;52.376;16.744;2023-03-24T04:06:05;7;84.2
67893;DHT22;54688;52.376;16.744;2023-03-24T04:09:22;6.9;84.2
67893;DHT22;54688;52.376;16.744;2023-03-24T04:12:41;7;84.3
67893;DHT22;54688;52.376;16.744;2023-03-24T04:15:52;7;84.3
67893;DHT22;54688;52.376;16.744;2023-03-24T04:18:58;6.9;84
67893;DHT22;54688;52.376;16.744;2023-03-24T04:25:12;7;84.1
67893;DHT22;54688;52.376;16.744;2023-03-24T04:28:22;7;84.2
67893;DHT22;54688;52.376;16.744;2023-03-24T04:37:26;7;84.5
67893;DHT22;54688;52.376;16.744;2023-03-24T04:40:31;7.1;84.4
67893;DHT22;54688;52.376;16.744;2023-03-24T04:43:35;7.1;84.1
67893;DHT22;54688;52.376;16.744;2023-03-24T04:46:37;7.1;84.1
67893;DHT22;54688;52.376;16.744;2023-03-24T04:52:40;7.2;84.1
67893;DHT22;54688;52.376;16.744;2023-03-24T04:55:47;7.2;84.1
67893;DHT22;54688;52.376;16.744;2023-03-24T04:58:57;7.2;84.3
67893;DHT22;54688;52.376;16.744;2023-03-24T05:02:00;7.3;84.3
67893;DHT22;54688;52.376;16.744;2023-03-24T05:05:02;7.3;84.7
67893;DHT22;54688;52.376;16.744;2023-03-24T05:08:05;7.4;84.9
67893;DHT22;54688;52.376;16.744;2023-03-24T05:11:07;7.5;84.9
67893;DHT22;54688;52.376;16.744;2023-03-24T05:14:09;7.6;84.7
67893;DHT22;54688;52.376;16.744;2023-03-24T05:17:11;7.7;84.6
67893;DHT22;54688;52.376;16.744;2023-03-24T05:20:13;7.9;84.5
67893;DHT22;54688;52.376;16.744;2023-03-24T05:23:16;7.9;84.3
67893;DHT22;54688;52.376;16.744;2023-03-24T05:26:17;8;84.1
67893;DHT22;54688;52.376;16.744;2023-03-24T05:29:20;8.1;83.9
67893;DHT22;54688;52.376;16.744;2023-03-24T05:32:22;8.3;83.7
67893;DHT22;54688;52.376;16.744;2023-03-24T05:35:24;8.3;83.6
67893;DHT22;54688;52.376;16.744;2023-03-24T05:38:26;8.5;83.4
67893;DHT22;54688;52.376;16.744;2023-03-24T05:41:29;8.5;83.2
67893;DHT22;54688;52.376;16.744;2023-03-24T05:44:31;8.7;83
67893;DHT22;54688;52.376;16.744;2023-03-24T05:47:33;8.7;82.8
67893;DHT22;54688;52.376;16.744;2023-03-24T05:53:34;8.9;82.5
67893;DHT22;54688;52.376;16.744;2023-03-24T05:59:36;9.1;82.2
67893;DHT22;54688;52.376;16.744;2023-03-24T06:02:38;9.1;82
67893;DHT22;54688;52.376;16.744;2023-03-24T06:05:41;9.2;81.8
67893;DHT22;54688;52.376;16.744;2023-03-24T06:08:43;9.3;81.7
67893;DHT22;54688;52.376;16.744;2023-03-24T06:11:46;9.4;81.5
67893;DHT22;54688;52.376;16.744;2023-03-24T06:14:47;9.5;81.3
67893;DHT22;54688;52.376;16.744;2023-03-24T06:17:50;9.6;81.1
67893;DHT22;54688;52.376;16.744;2023-03-24T06:20:52;9.7;81.1
67893;DHT22;54688;52.376;16.744;2023-03-24T06:23:54;9.7;81.1
67893;DHT22;54688;52.376;16.744;2023-03-24T06:26:56;9.8;81.2
67893;DHT22;54688;52.376;16.744;2023-03-24T06:29:58;9.8;81.2
67893;DHT22;54688;52.376;16.744;2023-03-24T06:33:00;9.9;81.5
67893;DHT22;54688;52.376;16.744;2023-03-24T06:36:02;9.9;81.7
67893;DHT22;54688;52.376;16.744;2023-03-24T06:39:05;10;82
67893;DHT22;54688;52.376;16.744;2023-03-24T06:42:07;10.1;82.5
67893;DHT22;54688;52.376;16.744;2023-03-24T06:45:10;10.1;82.6
67893;DHT22;54688;52.376;16.744;2023-03-24T06:48:13;10.2;82.7
67893;DHT22;54688;52.376;16.744;2023-03-24T06:51:15;10.3;82.7
67893;DHT22;54688;52.376;16.744;2023-03-24T06:54:17;10.3;82.8
67893;DHT22;54688;52.376;16.744;2023-03-24T06:57:19;10.4;82.8
67893;DHT22;54688;52.376;16.744;2023-03-24T07:00:22;10.5;83
67893;DHT22;54688;52.376;16.744;2023-03-24T07:03:23;10.5;82.9
67893;DHT22;54688;52.376;16.744;2023-03-24T07:06:25;10.6;82.9
67893;DHT22;54688;52.376;16.744;2023-03-24T07:09:27;10.6;82.9
67893;DHT22;54688;52.376;16.744;2023-03-24T07:12:30;10.7;82.9
67893;DHT22;54688;52.376;16.744;2023-03-24T07:15:32;10.7;82.7
67893;DHT22;54688;52.376;16.744;2023-03-24T07:18:34;10.8;82.6
67893;DHT22;54688;52.376;16.744;2023-03-24T07:21:36;10.9;82.3
67893;DHT22;54688;52.376;16.744;2023-03-24T07:24:39;10.9;82.9
67893;DHT22;54688;52.376;16.744;2023-03-24T07:27:41;11;82
67893;DHT22;54688;52.376;16.744;2023-03-24T07:30:43;11;82.6
67893;DHT22;54688;52.376;16.744;2023-03-24T07:33:46;11.1;81.6
67893;DHT22;54688;52.376;16.744;2023-03-24T07:36:48;11.1;81.5
67893;DHT22;54688;52.376;16.744;2023-03-24T07:39:50;11.2;81.2
67893;DHT22;54688;52.376;16.744;2023-03-24T07:42:53;11.3;80.9
67893;DHT22;54688;52.376;16.744;2023-03-24T07:45:55;11.3;80.6
67893;DHT22;54688;52.376;16.744;2023-03-24T07:48:56;11.4;80.5
67893;DHT22;54688;52.376;16.744;2023-03-24T07:51:58;11.4;80.2
67893;DHT22;54688;52.376;16.744;2023-03-24T07:55:00;11.4;80.2
67893;DHT22;54688;52.376;16.744;2023-03-24T07:58:03;11.5;80.2
67893;DHT22;54688;52.376;16.744;2023-03-24T08:01:05;11.4;79.7
67893;DHT22;54688;52.376;16.744;2023-03-24T08:04:08;11.5;80.1
67893;DHT22;54688;52.376;16.744;2023-03-24T08:07:12;11.5;80.1
67893;DHT22;54688;52.376;16.744;2023-03-24T08:10:15;11.6;80
67893;DHT22;54688;52.376;16.744;2023-03-24T08:13:17;11.6;79.8
67893;DHT22;54688;52.376;16.744;2023-03-24T08:16:19;11.7;79.5
67893;DHT22;54688;52.376;16.744;2023-03-24T08:19:21;11.8;79.5
67893;DHT22;54688;52.376;16.744;2023-03-24T08:22:24;11.9;79.3
67893;DHT22;54688;52.376;16.744;2023-03-24T08:25:26;12;78.6
67893;DHT22;54688;52.376;16.744;2023-03-24T08:28:28;12.2;78.3
67893;DHT22;54688;52.376;16.744;2023-03-24T08:31:31;12.3;78.3
67893;DHT22;54688;52.376;16.744;2023-03-24T08:34:34;12.4;77.3
67893;DHT22;54688;52.376;16.744;2023-03-24T08:37:36;12.5;76.7
67893;DHT22;54688;52.376;16.744;2023-03-24T08:40:38;12.6;76.7
67893;DHT22;54688;52.376;16.744;2023-03-24T08:46:40;12.8;76.6
67893;DHT22;54688;52.376;16.744;2023-03-24T08:49:43;12.9;75.8
67893;DHT22;54688;52.376;16.744;2023-03-24T08:52:45;13;75.6
67893;DHT22;54688;52.376;16.744;2023-03-24T08:55:48;13.2;75
67893;DHT22;54688;52.376;16.744;2023-03-24T08:58:50;13.4;74.1
67893;DHT22;54688;52.376;16.744;2023-03-24T09:01:52;13.5;73.2
67893;DHT22;54688;52.376;16.744;2023-03-24T09:04:54;13.7;73
67893;DHT22;54688;52.376;16.744;2023-03-24T09:07:57;13.8;72.1
67893;DHT22;54688;52.376;16.744;2023-03-24T09:11:00;13.9;71.8
67893;DHT22;54688;52.376;16.744;2023-03-24T09:14:02;14;71.3
67893;DHT22;54688;52.376;16.744;2023-03-24T09:17:05;14.1;70.8
67893;DHT22;54688;52.376;16.744;2023-03-24T09:20:08;14.2;69.8
67893;DHT22;54688;52.376;16.744;2023-03-24T09:23:12;14.3;68.9
67893;DHT22;54688;52.376;16.744;2023-03-24T09:26:15;14.3;69.1
67893;DHT22;54688;52.376;16.744;2023-03-24T09:29:17;14.3;69.2
67893;DHT22;54688;52.376;16.744;2023-03-24T09:32:19;14.3;68.9
67893;DHT22;54688;52.376;16.744;2023-03-24T09:35:22;14.5;69.1
67893;DHT22;54688;52.376;16.744;2023-03-24T09:38:24;14.6;68.9
67893;DHT22;54688;52.376;16.744;2023-03-24T09:41:27;14.8;67.8
67893;DHT22;54688;52.376;16.744;2023-03-24T09:44:32;15;66.7
67893;DHT22;54688;52.376;16.744;2023-03-24T09:47:38;15.2;65.2
67893;DHT22;54688;52.376;16.744;2023-03-24T09:50:47;15.2;65.3
67893;DHT22;54688;52.376;16.744;2023-03-24T09:53:54;15.2;64.9
67893;DHT22;54688;52.376;16.744;2023-03-24T09:57:01;15.3;64
67893;DHT22;54688;52.376;16.744;2023-03-24T10:00:14;15.3;64.2
67893;DHT22;54688;52.376;16.744;2023-03-24T10:03:18;15.3;64.3
67893;DHT22;54688;52.376;16.744;2023-03-24T10:06:23;15.3;63.8
67893;DHT22;54688;52.376;16.744;2023-03-24T10:09:28;15.4;63.9
67893;DHT22;54688;52.376;16.744;2023-03-24T10:12:33;15.4;63.9
67893;DHT22;54688;52.376;16.744;2023-03-24T10:15:38;15.5;63.6
67893;DHT22;54688;52.376;16.744;2023-03-24T10:18:47;15.5;67
67893;DHT22;54688;52.376;16.744;2023-03-24T10:21:56;15.5;68.6
67893;DHT22;54688;52.376;16.744;2023-03-24T10:25:05;15.4;67.2
67893;DHT22;54688;52.376;16.744;2023-03-24T10:28:18;15.3;66.2
67893;DHT22;54688;52.376;16.744;2023-03-24T10:31:24;15.3;65.6
67893;DHT22;54688;52.376;16.744;2023-03-24T10:34:30;15.2;65.5
67893;DHT22;54688;52.376;16.744;2023-03-24T10:37:34;15.1;64.3
67893;DHT22;54688;52.376;16.744;2023-03-24T10:40:38;15;65.5
67893;DHT22;54688;52.376;16.744;2023-03-24T10:46:43;14.9;65.5
67893;DHT22;54688;52.376;16.744;2023-03-24T10:49:51;14.9;66.5
67893;DHT22;54688;52.376;16.744;2023-03-24T10:52:54;14.9;65.9
67893;DHT22;54688;52.376;16.744;2023-03-24T10:55:57;15;65.7
67893;DHT22;54688;52.376;16.744;2023-03-24T10:58:59;15;65.7
67893;DHT22;54688;52.376;16.744;2023-03-24T11:02:02;15.2;64.9
67893;DHT22;54688;52.376;16.744;2023-03-24T11:05:16;15.2;64.1
67893;DHT22;54688;52.376;16.744;2023-03-24T11:08:22;15.3;64.2
67893;DHT22;54688;52.376;16.744;2023-03-24T11:11:28;15.2;64.2
67893;DHT22;54688;52.376;16.744;2023-03-24T11:14:32;15.2;64.2
67893;DHT22;54688;52.376;16.744;2023-03-24T11:17:34;15.2;64.6
67893;DHT22;54688;52.376;16.744;2023-03-24T11:20:37;15.2;64.6
67893;DHT22;54688;52.376;16.744;2023-03-24T11:23:41;15.4;64.2
67893;DHT22;54688;52.376;16.744;2023-03-24T11:26:44;15.5;63.9
67893;DHT22;54688;52.376;16.744;2023-03-24T11:29:51;15.5;64
67893;DHT22;54688;52.376;16.744;2023-03-24T11:32:55;15.6;64.9
67893;DHT22;54688;52.376;16.744;2023-03-24T11:35:57;15.7;64.7
67893;DHT22;54688;52.376;16.744;2023-03-24T11:39:00;15.7;65
67893;DHT22;54688;52.376;16.744;2023-03-24T11:45:17;15.8;65.6
67893;DHT22;54688;52.376;16.744;2023-03-24T11:51:22;16.1;63.7
67893;DHT22;54688;52.376;16.744;2023-03-24T11:54:28;16.1;63.4
67893;DHT22;54688;52.376;16.744;2023-03-24T11:57:40;16.3;62
67893;DHT22;54688;52.376;16.744;2023-03-24T12:00:50;16.4;60.8
67893;DHT22;54688;52.376;16.744;2023-03-24T12:07:01;16.8;61.1
67893;DHT22;54688;52.376;16.744;2023-03-24T12:10:16;17.1;60.1
67893;DHT22;54688;52.376;16.744;2023-03-24T12:13:31;17.3;59.7
67893;DHT22;54688;52.376;16.744;2023-03-24T12:16:39;17.3;59.2
67893;DHT22;54688;52.376;16.744;2023-03-24T12:19:52;17.4;58.6
67893;DHT22;54688;52.376;16.744;2023-03-24T12:23:06;17.5;58
67893;DHT22;54688;52.376;16.744;2023-03-24T12:26:12;17.5;58.2
67893;DHT22;54688;52.376;16.744;2023-03-24T12:29:24;17.6;57.6
67893;DHT22;54688;52.376;16.744;2023-03-24T12:32:40;17.6;57
67893;DHT22;54688;52.376;16.744;2023-03-24T12:35:54;17.6;56
67893;DHT22;54688;52.376;16.744;2023-03-24T12:39:10;17.6;55.9
67893;DHT22;54688;52.376;16.744;2023-03-24T12:42:14;17.6;55.8
67893;DHT22;54688;52.376;16.744;2023-03-24T12:45:21;17.6;55.5
67893;DHT22;54688;52.376;16.744;2023-03-24T12:48:38;17.6;54.6
67893;DHT22;54688;52.376;16.744;2023-03-24T12:51:53;17.7;54
67893;DHT22;54688;52.376;16.744;2023-03-24T12:55:07;17.7;53.6
67893;DHT22;54688;52.376;16.744;2023-03-24T12:58:15;17.7;53.8
67893;DHT22;54688;52.376;16.744;2023-03-24T13:01:22;17.8;53.3
67893;DHT22;54688;52.376;16.744;2023-03-24T13:04:31;17.9;53.9
67893;DHT22;54688;52.376;16.744;2023-03-24T13:07:36;17.9;54.2
67893;DHT22;54688;52.376;16.744;2023-03-24T13:10:38;18;54.4
67893;DHT22;54688;52.376;16.744;2023-03-24T13:13:42;17.9;53.2
67893;DHT22;54688;52.376;16.744;2023-03-24T13:16:46;17.8;53.4
67893;DHT22;54688;52.376;16.744;2023-03-24T13:19:48;17.7;53.1
67893;DHT22;54688;52.376;16.744;2023-03-24T13:22:53;17.7;52.8
67893;DHT22;54688;52.376;16.744;2023-03-24T13:25:58;17.7;52.1
67893;DHT22;54688;52.376;16.744;2023-03-24T13:29:10;17.6;52
67893;DHT22;54688;52.376;16.744;2023-03-24T13:32:21;17.6;52.2
67893;DHT22;54688;52.376;16.744;2023-03-24T13:35:49;17.6;51.2
67893;DHT22;54688;52.376;16.744;2023-03-24T13:38:59;17.5;51.1
67893;DHT22;54688;52.376;16.744;2023-03-24T13:42:05;17.5;51.7
67893;DHT22;54688;52.376;16.744;2023-03-24T13:45:17;17.4;52.3
67893;DHT22;54688;52.376;16.744;2023-03-24T13:48:29;17.3;52.4
67893;DHT22;54688;52.376;16.744;2023-03-24T13:51:34;17.3;52.5
67893;DHT22;54688;52.376;16.744;2023-03-24T13:54:37;17.4;52.1
67893;DHT22;54688;52.376;16.744;2023-03-24T13:57:40;17.3;52.3
67893;DHT22;54688;52.376;16.744;2023-03-24T14:01:15;17.3;52.6
67893;DHT22;54688;52.376;16.744;2023-03-24T14:04:22;17.4;53.2
67893;DHT22;54688;52.376;16.744;2023-03-24T14:07:29;17.5;52.9
67893;DHT22;54688;52.376;16.744;2023-03-24T14:10:38;17.6;52.6
67893;DHT22;54688;52.376;16.744;2023-03-24T14:13:46;17.7;52.3
67893;DHT22;54688;52.376;16.744;2023-03-24T14:16:51;17.7;51.6
67893;DHT22;54688;52.376;16.744;2023-03-24T14:20:11;17.7;51.6
67893;DHT22;54688;52.376;16.744;2023-03-24T14:23:30;17.7;51.5
67893;DHT22;54688;52.376;16.744;2023-03-24T14:26:38;17.6;51.9
67893;DHT22;54688;52.376;16.744;2023-03-24T14:29:46;17.5;52.3
67893;DHT22;54688;52.376;16.744;2023-03-24T14:32:51;17.4;51.3
67893;DHT22;54688;52.376;16.744;2023-03-24T14:35:57;17.4;52.2
67893;DHT22;54688;52.376;16.744;2023-03-24T14:39:05;17.3;52.3
67893;DHT22;54688;52.376;16.744;2023-03-24T14:42:26;17.1;52
67893;DHT22;54688;52.376;16.744;2023-03-24T14:45:54;17;52.8
67893;DHT22;54688;52.376;16.744;2023-03-24T14:48:58;16.9;52.9
67893;DHT22;54688;52.376;16.744;2023-03-24T14:52:08;16.8;52.7
67893;DHT22;54688;52.376;16.744;2023-03-24T14:55:14;16.7;52
67893;DHT22;54688;52.376;16.744;2023-03-24T14:58:19;16.6;53.4
67893;DHT22;54688;52.376;16.744;2023-03-24T15:01:25;16.5;53.9
67893;DHT22;54688;52.376;16.744;2023-03-24T15:04:30;16.5;52.8
67893;DHT22;54688;52.376;16.744;2023-03-24T15:07:32;16.4;58.6
67893;DHT22;54688;52.376;16.744;2023-03-24T15:10:36;16.1;61.9
67893;DHT22;54688;52.376;16.744;2023-03-24T15:13:41;15.7;63.3
67893;DHT22;54688;52.376;16.744;2023-03-24T15:16:49;15;65.3
67893;DHT22;54688;52.376;16.744;2023-03-24T15:19:53;14.1;67.9
67893;DHT22;54688;52.376;16.744;2023-03-24T15:23:03;13.4;73.1
67893;DHT22;54688;52.376;16.744;2023-03-24T15:26:10;12.8;76.5
67893;DHT22;54688;52.376;16.744;2023-03-24T15:29:13;12.5;79.1
67893;DHT22;54688;52.376;16.744;2023-03-24T15:32:16;12.3;81.1
67893;DHT22;54688;52.376;16.744;2023-03-24T15:35:21;12.2;82.7
67893;DHT22;54688;52.376;16.744;2023-03-24T15:38:26;12.1;82.8
67893;DHT22;54688;52.376;16.744;2023-03-24T15:41:30;12;82.7
67893;DHT22;54688;52.376;16.744;2023-03-24T15:44:35;11.9;80.5
67893;DHT22;54688;52.376;16.744;2023-03-24T15:47:39;11.9;80.3
67893;DHT22;54688;52.376;16.744;2023-03-24T15:50:53;11.8;80.8
67893;DHT22;54688;52.376;16.744;2023-03-24T15:56:58;11.6;79.4
67893;DHT22;54688;52.376;16.744;2023-03-24T16:00:06;11.6;77.5
67893;DHT22;54688;52.376;16.744;2023-03-24T16:03:13;11.6;77.6
67893;DHT22;54688;52.376;16.744;2023-03-24T16:06:20;11.5;77
67893;DHT22;54688;52.376;16.744;2023-03-24T16:09:33;11.5;74.5
67893;DHT22;54688;52.376;16.744;2023-03-24T16:12:37;11.3;71.6
67893;DHT22;54688;52.376;16.744;2023-03-24T16:15:39;11.3;70.6
67893;DHT22;54688;52.376;16.744;2023-03-24T16:18:43;11.2;70
67893;DHT22;54688;52.376;16.744;2023-03-24T16:21:46;11.1;71.8
67893;DHT22;54688;52.376;16.744;2023-03-24T16:24:49;11.1;71
67893;DHT22;54688;52.376;16.744;2023-03-24T16:27:51;11.1;72.4
67893;DHT22;54688;52.376;16.744;2023-03-24T16:30:54;11;71
67893;DHT22;54688;52.376;16.744;2023-03-24T16:34:00;11.1;71.2
67893;DHT22;54688;52.376;16.744;2023-03-24T16:37:02;11.1;71.4
67893;DHT22;54688;52.376;16.744;2023-03-24T16:40:10;11.1;71.1
67893;DHT22;54688;52.376;16.744;2023-03-24T16:43:20;11.1;71.7
67893;DHT22;54688;52.376;16.744;2023-03-24T16:46:29;11.2;71.4
67893;DHT22;54688;52.376;16.744;2023-03-24T16:49:32;11.1;72.7
67893;DHT22;54688;52.376;16.744;2023-03-24T16:52:34;11.1;72.5
67893;DHT22;54688;52.376;16.744;2023-03-24T16:55:36;11.1;72.1
67893;DHT22;54688;52.376;16.744;2023-03-24T16:58:40;11.1;73.7
67893;DHT22;54688;52.376;16.744;2023-03-24T17:01:43;11;74.5
67893;DHT22;54688;52.376;16.744;2023-03-24T17:04:46;10.9;76
67893;DHT22;54688;52.376;16.744;2023-03-24T17:07:48;10.7;77.1
67893;DHT22;54688;52.376;16.744;2023-03-24T17:10:51;10.6;77.7
67893;DHT22;54688;52.376;16.744;2023-03-24T17:13:55;10.5;78.8
67893;DHT22;54688;52.376;16.744;2023-03-24T17:16:57;10.4;80.1
67893;DHT22;54688;52.376;16.744;2023-03-24T17:19:59;10.3;80.8
67893;DHT22;54688;52.376;16.744;2023-03-24T17:23:01;10.2;81.6
67893;DHT22;54688;52.376;16.744;2023-03-24T17:26:03;10.2;81.9
67893;DHT22;54688;52.376;16.744;2023-03-24T17:29:05;10.1;82
67893;DHT22;54688;52.376;16.744;2023-03-24T17:32:08;10.1;82.1
67893;DHT22;54688;52.376;16.744;2023-03-24T17:35:12;10.1;82.5
67893;DHT22;54688;52.376;16.744;2023-03-24T17:38:18;10;82.8
67893;DHT22;54688;52.376;16.744;2023-03-24T17:41:20;10;82.9
67893;DHT22;54688;52.376;16.744;2023-03-24T17:44:22;10;83.9
67893;DHT22;54688;52.376;16.744;2023-03-24T17:47:24;9.9;82.5
67893;DHT22;54688;52.376;16.744;2023-03-24T17:50:26;9.9;82.5
67893;DHT22;54688;52.376;16.744;2023-03-24T17:53:29;9.9;82.7
67893;DHT22;54688;52.376;16.744;2023-03-24T17:56:31;9.9;83.6
67893;DHT22;54688;52.376;16.744;2023-03-24T17:59:34;9.9;83.3
67893;DHT22;54688;52.376;16.744;2023-03-24T18:02:36;9.8;83.1
67893;DHT22;54688;52.376;16.744;2023-03-24T18:05:40;9.8;83.4
67893;DHT22;54688;52.376;16.744;2023-03-24T18:08:42;9.7;83.7
67893;DHT22;54688;52.376;16.744;2023-03-24T18:11:45;9.7;83.8
67893;DHT22;54688;52.376;16.744;2023-03-24T18:14:47;9.7;83.7
67893;DHT22;54688;52.376;16.744;2023-03-24T18:17:49;9.7;83.8
67893;DHT22;54688;52.376;16.744;2023-03-24T18:20:52;9.6;83.6
67893;DHT22;54688;52.376;16.744;2023-03-24T18:23:54;9.6;84.4
67893;DHT22;54688;52.376;16.744;2023-03-24T18:26:56;9.6;83.6
67893;DHT22;54688;52.376;16.744;2023-03-24T18:29:59;9.6;83.7
67893;DHT22;54688;52.376;16.744;2023-03-24T18:33:01;9.5;83.7
67893;DHT22;54688;52.376;16.744;2023-03-24T18:36:03;9.5;83.7
67893;DHT22;54688;52.376;16.744;2023-03-24T18:39:07;9.5;83.7
67893;DHT22;54688;52.376;16.744;2023-03-24T18:42:10;9.4;83.5
67893;DHT22;54688;52.376;16.744;2023-03-24T18:45:12;9.3;83.4
67893;DHT22;54688;52.376;16.744;2023-03-24T18:48:14;9.3;83.4
67893;DHT22;54688;52.376;16.744;2023-03-24T18:54:16;9.2;83.2
67893;DHT22;54688;52.376;16.744;2023-03-24T18:57:18;9.1;83.3
67893;DHT22;54688;52.376;16.744;2023-03-24T19:00:21;9.1;83.4
67893;DHT22;54688;52.376;16.744;2023-03-24T19:03:23;9;83.1
67893;DHT22;54688;52.376;16.744;2023-03-24T19:06:26;9;83.5
67893;DHT22;54688;52.376;16.744;2023-03-24T19:09:29;8.9;83.5
67893;DHT22;54688;52.376;16.744;2023-03-24T19:12:31;8.9;83.8
67893;DHT22;54688;52.376;16.744;2023-03-24T19:15:33;8.8;83.4
67893;DHT22;54688;52.376;16.744;2023-03-24T19:21:35;8.7;83.6
67893;DHT22;54688;52.376;16.744;2023-03-24T19:24:38;8.6;83.6
67893;DHT22;54688;52.376;16.744;2023-03-24T19:27:39;8.6;83.8
67893;DHT22;54688;52.376;16.744;2023-03-24T19:30:41;8.5;83.9
67893;DHT22;54688;52.376;16.744;2023-03-24T19:33:44;8.5;84
67893;DHT22;54688;52.376;16.744;2023-03-24T19:36:47;8.4;84.3
67893;DHT22;54688;52.376;16.744;2023-03-24T19:39:48;8.4;84.5
67893;DHT22;54688;52.376;16.744;2023-03-24T19:42:50;8.4;84.6
67893;DHT22;54688;52.376;16.744;2023-03-24T19:45:53;8.3;84.7
67893;DHT22;54688;52.376;16.744;2023-03-24T19:48:56;8.3;84.8
67893;DHT22;54688;52.376;16.744;2023-03-24T19:51:59;8.3;85
67893;DHT22;54688;52.376;16.744;2023-03-24T19:55:00;8.2;84.9
67893;DHT22;54688;52.376;16.744;2023-03-24T19:58:04;8.3;85
67893;DHT22;54688;52.376;16.744;2023-03-24T20:01:06;8.3;84.8
67893;DHT22;54688;52.376;16.744;2023-03-24T20:04:08;8.2;84.7
67893;DHT22;54688;52.376;16.744;2023-03-24T20:07:11;8.2;84.8
67893;DHT22;54688;52.376;16.744;2023-03-24T20:10:13;8.2;84.9
67893;DHT22;54688;52.376;16.744;2023-03-24T20:13:16;8.2;84.9
67893;DHT22;54688;52.376;16.744;2023-03-24T20:16:17;8.2;84.9
67893;DHT22;54688;52.376;16.744;2023-03-24T20:19:20;8.2;84.9
67893;DHT22;54688;52.376;16.744;2023-03-24T20:22:22;8.1;85.3
67893;DHT22;54688;52.376;16.744;2023-03-24T20:25:24;8.1;84.9
67893;DHT22;54688;52.376;16.744;2023-03-24T20:28:27;8.1;85
67893;DHT22;54688;52.376;16.744;2023-03-24T20:31:29;8;85
67893;DHT22;54688;52.376;16.744;2023-03-24T20:34:32;7.9;85.2
67893;DHT22;54688;52.376;16.744;2023-03-24T20:37:34;7.9;85.4
67893;DHT22;54688;52.376;16.744;2023-03-24T20:40:35;7.9;85.5
67893;DHT22;54688;52.376;16.744;2023-03-24T20:43:38;7.8;85.8
67893;DHT22;54688;52.376;16.744;2023-03-24T20:46:40;7.8;86
67893;DHT22;54688;52.376;16.744;2023-03-24T20:49:42;7.8;86
67893;DHT22;54688;52.376;16.744;2023-03-24T20:52:44;7.8;86.1
67893;DHT22;54688;52.376;16.744;2023-03-24T20:55:54;7.7;86.2